createdAt,value
2022-11-16T00:01:36.696Z,36.67
2022-11-16T00:04:06.316Z,37.77
2022-11-16T00:06:34.009Z,39.00
2022-11-16T00:09:21.299Z,38.97
2022-11-16T00:11:51.123Z,38.27
2022-11-16T00:14:19.363Z,37.50
2022-11-16T00:16:47.070Z,40.73
2022-11-16T00:19:16.145Z,40.97
2022-11-16T00:21:43.881Z,40.60
2022-11-16T00:24:13.640Z,41.03
2022-11-16T00:26:41.644Z,39.10
2022-11-16T00:29:14.539Z,39.20
2022-11-16T00:31:42.329Z,40.13
2022-11-16T00:34:10.064Z,40.50
2022-11-16T00:36:39.086Z,40.13
2022-11-16T00:39:06.808Z,36.93
2022-11-16T00:41:34.497Z,40.10
2022-11-16T00:44:02.213Z,38.03
2022-11-16T00:46:29.880Z,41.23
2022-11-16T00:48:57.613Z,39.70
2022-11-16T00:51:25.311Z,36.33
2022-11-16T00:53:54.412Z,37.20
2022-11-16T00:56:22.099Z,37.13
2022-11-16T00:58:49.867Z,36.03
2022-11-16T01:01:17.695Z,40.13
2022-11-16T01:03:46.020Z,33.17
2022-11-16T01:06:15.295Z,36.10
2022-11-16T01:08:44.982Z,35.60
2022-11-16T01:11:34.633Z,35.43
2022-11-16T01:14:04.125Z,36.00
2022-11-16T01:16:32.014Z,36.20
2022-11-16T01:18:59.796Z,35.67
2022-11-16T01:21:28.099Z,35.87
2022-11-16T01:23:57.030Z,35.23
2022-11-16T01:26:26.683Z,38.00
2022-11-16T01:28:54.486Z,36.87
2022-11-16T01:31:22.226Z,34.50
2022-11-16T01:33:49.937Z,37.97
2022-11-16T01:36:18.193Z,36.70
2022-11-16T01:38:47.473Z,34.13
2022-11-16T01:41:16.541Z,37.10
2022-11-16T01:43:55.592Z,35.07
2022-11-16T01:46:24.256Z,34.43
2022-11-16T01:48:55.413Z,34.73
2022-11-16T01:51:24.154Z,34.90
2022-11-16T01:53:52.279Z,35.73
2022-11-16T01:56:20.697Z,35.53
2022-11-16T01:58:48.640Z,35.60
2022-11-16T02:01:17.766Z,38.07
2022-11-16T02:03:45.566Z,40.93
2022-11-16T02:06:36.568Z,36.77
2022-11-16T02:09:40.607Z,37.50
2022-11-16T02:12:21.681Z,39.27
2022-11-16T02:15:04.313Z,41.13
2022-11-16T02:17:40.872Z,36.90
2022-11-16T02:20:47.193Z,38.80
2022-11-16T02:24:01.146Z,39.20
2022-11-16T02:26:57.557Z,37.83
2022-11-16T02:29:30.878Z,37.47
2022-11-16T02:32:05.113Z,41.23
2022-11-16T02:34:38.625Z,38.73
2022-11-16T02:37:07.987Z,41.70
2022-11-16T02:39:37.878Z,38.97
2022-11-16T02:42:09.221Z,41.00
2022-11-16T02:44:43.743Z,39.33
2022-11-16T02:47:18.137Z,41.97
2022-11-16T02:49:51.187Z,42.63
2022-11-16T02:52:19.982Z,43.03
2022-11-16T02:54:47.665Z,45.53
2022-11-16T02:57:40.006Z,43.03
2022-11-16T03:00:13.051Z,42.07
2022-11-16T03:02:49.621Z,39.30
2022-11-16T03:05:31.885Z,39.57
2022-11-16T03:08:08.235Z,41.90
2022-11-16T03:10:57.659Z,39.43
2022-11-16T03:13:28.478Z,39.23
2022-11-16T03:15:57.841Z,41.97
2022-11-16T03:18:28.978Z,39.70
2022-11-16T03:21:04.401Z,41.40
2022-11-16T03:23:32.354Z,42.07
2022-11-16T03:26:03.673Z,44.00
2022-11-16T03:28:40.685Z,40.00
2022-11-16T03:31:14.224Z,42.10
2022-11-16T03:33:46.980Z,43.70
2022-11-16T03:36:19.688Z,42.53
2022-11-16T03:38:50.726Z,43.97
2022-11-16T03:41:21.407Z,40.83
2022-11-16T03:43:50.620Z,41.77
2022-11-16T03:46:20.643Z,43.40
2022-11-16T03:48:48.509Z,40.90
2022-11-16T03:51:16.302Z,40.93
2022-11-16T03:53:44.011Z,42.40
2022-11-16T03:56:11.756Z,43.13
2022-11-16T03:58:39.484Z,44.27
2022-11-16T04:01:07.354Z,40.17
2022-11-16T04:03:36.488Z,43.80
2022-11-16T04:06:22.164Z,43.50
2022-11-16T04:09:07.606Z,40.60
2022-11-16T04:11:53.462Z,44.00
2022-11-16T04:14:40.400Z,43.80
2022-11-16T04:17:30.258Z,44.80
2022-11-16T04:20:13.304Z,42.50
2022-11-16T04:23:06.459Z,43.97
2022-11-16T04:25:37.277Z,46.23
2022-11-16T04:28:13.480Z,45.43
2022-11-16T04:31:00.212Z,46.07
2022-11-16T04:33:47.168Z,50.77
2022-11-16T04:36:34.095Z,50.10
2022-11-16T04:39:01.996Z,50.13
2022-11-16T04:41:49.947Z,50.97
2022-11-16T04:44:18.356Z,47.77
2022-11-16T04:47:03.954Z,48.27
2022-11-16T04:49:31.690Z,47.03
2022-11-16T04:52:00.966Z,47.93
2022-11-16T04:54:28.671Z,47.87
2022-11-16T04:56:56.392Z,48.20
2022-11-16T04:59:24.144Z,46.03
2022-11-16T05:02:09.823Z,46.83
2022-11-16T05:04:38.466Z,44.80
2022-11-16T05:07:10.915Z,44.07
2022-11-16T05:09:41.429Z,45.37
2022-11-16T05:12:09.583Z,44.40
2022-11-16T05:14:37.277Z,43.67
2022-11-16T05:17:05.046Z,44.90
2022-11-16T05:19:50.345Z,44.70
2022-11-16T05:22:19.488Z,44.70
2022-11-16T05:24:47.186Z,44.63
2022-11-16T05:27:16.452Z,43.33
2022-11-16T05:29:44.756Z,43.13
2022-11-16T05:32:13.761Z,44.83
2022-11-16T05:34:41.486Z,43.37
2022-11-16T05:37:09.261Z,42.97
2022-11-16T05:39:38.540Z,42.53
2022-11-16T05:42:07.178Z,42.93
2022-11-16T05:44:35.262Z,54.77
2022-11-16T05:47:03.109Z,44.70
2022-11-16T05:49:30.929Z,42.63
2022-11-16T05:51:58.635Z,41.67
2022-11-16T05:54:26.987Z,42.60
2022-11-16T05:56:56.139Z,43.33
2022-11-16T05:59:25.116Z,44.33
2022-11-16T06:01:53.126Z,41.40
2022-11-16T06:04:24.840Z,42.43
2022-11-16T06:06:53.138Z,41.93
2022-11-16T06:09:21.110Z,40.70
2022-11-16T06:11:49.067Z,42.33
2022-11-16T06:14:18.341Z,41.33
2022-11-16T06:16:46.249Z,39.57
2022-11-16T06:19:14.114Z,42.73
2022-11-16T06:21:42.086Z,40.97
2022-11-16T06:24:10.020Z,42.20
2022-11-16T06:26:38.358Z,43.73
2022-11-16T06:29:06.193Z,41.87
2022-11-16T06:31:35.514Z,40.30
2022-11-16T06:34:03.423Z,41.77
2022-11-16T06:36:31.364Z,42.43
2022-11-16T06:39:01.309Z,38.20
2022-11-16T06:41:29.243Z,40.53
2022-11-16T06:43:57.225Z,39.73
2022-11-16T06:46:25.578Z,39.37
2022-11-16T06:48:54.916Z,38.83
2022-11-16T06:51:22.814Z,37.60
2022-11-16T06:53:50.714Z,39.00
2022-11-16T06:56:19.598Z,39.77
2022-11-16T06:58:47.489Z,38.23
2022-11-16T07:01:15.409Z,36.33
2022-11-16T07:03:44.050Z,36.50
2022-11-16T07:06:14.604Z,38.53
2022-11-16T07:08:42.656Z,36.40
2022-11-16T07:11:11.528Z,39.27
2022-11-16T07:13:40.439Z,41.40
2022-11-16T07:16:10.406Z,39.23
2022-11-16T07:18:40.226Z,39.80
2022-11-16T07:21:08.777Z,42.37
2022-11-16T07:23:38.647Z,42.67
2022-11-16T07:26:08.581Z,42.07
2022-11-16T07:28:36.885Z,41.17
2022-11-16T07:31:06.427Z,41.03
2022-11-16T07:33:34.848Z,44.83
2022-11-16T07:36:03.589Z,42.30
2022-11-16T07:38:32.796Z,41.73
2022-11-16T07:41:03.063Z,42.63
2022-11-16T07:43:31.734Z,43.83
2022-11-16T07:46:30.230Z,40.40
2022-11-16T07:48:52.148Z,41.27
2022-11-16T07:51:21.229Z,42.03
2022-11-16T07:53:49.155Z,41.60
2022-11-16T07:56:18.448Z,44.30
2022-11-16T07:58:46.551Z,40.70
2022-11-16T08:01:16.668Z,46.00
2022-11-16T08:03:46.877Z,42.77
2022-11-16T08:06:18.463Z,44.00
2022-11-16T08:08:46.342Z,43.80
2022-11-16T08:11:14.554Z,43.60
2022-11-16T08:13:44.818Z,44.63
2022-11-16T08:16:14.946Z,43.73
2022-11-16T08:18:43.540Z,43.77
2022-11-16T08:21:12.639Z,43.47
2022-11-16T08:23:41.149Z,46.50
2022-11-16T08:26:11.104Z,48.43
2022-11-16T08:28:39.280Z,48.43
2022-11-16T08:31:13.767Z,46.87
2022-11-16T08:33:42.353Z,52.03
2022-11-16T08:36:17.184Z,49.83
2022-11-16T08:38:45.338Z,47.33
2022-11-16T08:41:13.368Z,50.07
2022-11-16T08:43:41.423Z,48.80
2022-11-16T08:46:11.655Z,49.70
2022-11-16T08:48:40.200Z,49.90
2022-11-16T08:51:17.553Z,50.90
2022-11-16T08:53:48.340Z,52.80
2022-11-16T08:56:18.920Z,49.30
2022-11-16T08:58:50.283Z,51.80
2022-11-16T09:01:23.597Z,52.47
2022-11-16T09:03:52.751Z,52.83
2022-11-16T09:06:20.719Z,52.10
2022-11-16T09:08:48.997Z,53.00
2022-11-16T09:11:18.797Z,55.47
2022-11-16T09:13:47.768Z,54.13
2022-11-16T09:16:16.960Z,54.17
2022-11-16T09:18:47.203Z,53.87
2022-11-16T09:21:18.258Z,52.87
2022-11-16T09:23:46.161Z,51.17
2022-11-16T09:26:14.663Z,50.40
2022-11-16T09:28:42.745Z,48.73
2022-11-16T09:31:10.762Z,51.20
2022-11-16T09:33:38.744Z,48.53
2022-11-16T09:36:10.159Z,48.83
2022-11-16T09:41:42.273Z,45.93
2022-11-16T09:44:21.259Z,43.57
2022-11-16T09:46:53.961Z,46.63
2022-11-16T09:49:26.200Z,41.43
2022-11-16T09:52:00.362Z,42.97
2022-11-16T09:54:31.894Z,41.43
2022-11-16T09:57:05.658Z,40.60
2022-11-16T09:59:42.160Z,37.87
2022-11-16T10:02:20.479Z,37.77
2022-11-16T10:04:58.200Z,38.37
2022-11-16T10:07:34.166Z,35.53
2022-11-16T10:10:02.094Z,36.37
2022-11-16T10:12:36.122Z,36.93
2022-11-16T10:15:28.359Z,36.00
2022-11-16T10:18:19.014Z,34.10
2022-11-16T10:20:55.863Z,34.97
2022-11-16T10:23:37.103Z,34.13
2022-11-16T10:26:17.796Z,33.87
2022-11-16T10:29:02.723Z,36.17
2022-11-16T10:31:43.050Z,34.00
2022-11-16T10:34:20.290Z,34.80
2022-11-16T10:36:48.295Z,32.77
2022-11-16T10:39:20.259Z,33.47
2022-11-16T10:41:50.765Z,33.60
2022-11-16T10:44:25.481Z,33.13
2022-11-16T10:46:58.623Z,30.27
2022-11-16T10:49:35.406Z,30.40
2022-11-16T10:52:03.380Z,27.73
2022-11-16T10:54:32.614Z,27.83
2022-11-16T10:57:05.492Z,27.07
2022-11-16T10:59:41.640Z,27.27
2022-11-16T11:02:37.580Z,26.90
2022-11-16T11:05:16.628Z,27.53
2022-11-16T11:07:47.785Z,24.93
2022-11-16T11:10:30.391Z,28.43
2022-11-16T11:13:08.145Z,28.33
2022-11-16T11:15:36.221Z,30.10
2022-11-16T11:18:19.654Z,29.73
2022-11-16T11:20:49.493Z,30.00
2022-11-16T11:23:19.275Z,31.37
2022-11-16T11:25:54.069Z,30.97
2022-11-16T11:28:26.218Z,31.20
2022-11-16T11:31:01.101Z,31.43
2022-11-16T11:33:31.957Z,32.50
2022-11-16T11:36:04.075Z,32.20
2022-11-16T11:38:32.380Z,31.67
2022-11-16T11:41:05.088Z,30.53
2022-11-16T11:43:35.161Z,28.73
2022-11-16T11:46:13.158Z,29.10
2022-11-16T11:48:48.134Z,27.93
2022-11-16T11:51:21.886Z,29.53
2022-11-16T11:53:56.427Z,27.50
2022-11-16T11:56:27.154Z,26.33
2022-11-16T11:58:55.827Z,28.07
2022-11-16T12:01:52.643Z,26.70
2022-11-16T12:04:47.448Z,26.33
2022-11-16T12:07:28.676Z,25.93
2022-11-16T12:10:05.027Z,27.83
2022-11-16T12:12:48.428Z,28.03
2022-11-16T12:15:33.722Z,27.23
2022-11-16T12:18:13.053Z,27.40
2022-11-16T12:20:48.043Z,26.70
2022-11-16T12:23:37.605Z,27.33
2022-11-16T12:26:13.155Z,26.93
2022-11-16T12:29:04.299Z,25.83
2022-11-16T12:31:58.966Z,26.40
2022-11-16T12:34:45.121Z,25.43
2022-11-16T12:37:19.106Z,25.57
2022-11-16T12:39:59.484Z,26.20
2022-11-16T12:42:41.450Z,27.53
2022-11-16T12:45:32.599Z,27.47
2022-11-16T12:48:27.331Z,26.57
2022-11-16T12:50:58.689Z,26.33
2022-11-16T12:53:52.416Z,26.60
2022-11-16T12:56:31.044Z,23.90
2022-11-16T12:59:18.704Z,23.53
2022-11-16T13:02:00.821Z,23.47
2022-11-16T13:04:34.941Z,24.97
2022-11-16T13:07:11.244Z,23.93
2022-11-16T13:09:44.456Z,24.27
2022-11-16T13:12:17.208Z,23.17
2022-11-16T13:14:48.315Z,22.40
2022-11-16T13:17:21.905Z,22.00
2022-11-16T13:20:07.053Z,22.63
2022-11-16T13:22:39.810Z,21.30
2022-11-16T13:25:17.337Z,22.30
2022-11-16T13:27:50.470Z,21.07
2022-11-16T13:30:21.672Z,20.93
2022-11-16T13:33:09.853Z,21.70
2022-11-16T13:35:39.252Z,21.00
2022-11-16T13:38:12.420Z,20.67
2022-11-16T13:40:41.333Z,21.20
2022-11-16T13:43:18.797Z,22.53
2022-11-16T13:45:57.054Z,22.30
2022-11-16T13:48:30.580Z,21.63
2022-11-16T13:51:01.411Z,20.70
2022-11-16T13:54:24.988Z,22.30
2022-11-16T13:56:25.566Z,23.07
2022-11-16T13:58:57.360Z,21.83
2022-11-16T14:01:26.717Z,22.40
2022-11-16T14:04:36.171Z,23.47
2022-11-16T14:07:04.336Z,23.20
2022-11-16T14:09:49.515Z,22.77
2022-11-16T14:12:57.586Z,22.03
2022-11-16T14:15:33.971Z,21.77
2022-11-16T14:18:34.149Z,22.07
2022-11-16T14:21:15.413Z,23.53
2022-11-16T14:24:03.431Z,22.77
2022-11-16T14:26:43.286Z,24.47
2022-11-16T14:29:37.519Z,23.43
2022-11-16T14:32:17.080Z,22.93
2022-11-16T14:34:47.269Z,21.77
2022-11-16T14:37:31.982Z,23.97
2022-11-16T14:40:03.647Z,24.30
2022-11-16T14:42:48.368Z,23.30
2022-11-16T14:45:27.053Z,21.73
2022-11-16T14:48:00.892Z,23.63
2022-11-16T14:50:30.288Z,24.30
2022-11-16T14:53:03.154Z,22.53
2022-11-16T14:55:31.117Z,22.63
2022-11-16T14:58:09.744Z,21.93
2022-11-16T15:00:39.166Z,21.83
2022-11-16T15:03:11.141Z,21.00
2022-11-16T15:05:39.245Z,22.03
2022-11-16T15:08:23.029Z,21.13
2022-11-16T15:10:52.707Z,20.63
2022-11-16T15:13:24.049Z,21.23
2022-11-16T15:16:09.450Z,22.17
2022-11-16T15:18:37.442Z,21.03
2022-11-16T15:21:06.346Z,20.67
2022-11-16T15:24:02.008Z,19.13
2022-11-16T15:26:39.329Z,18.80
2022-11-16T15:29:07.307Z,18.30
2022-11-16T15:31:37.426Z,19.03
2022-11-16T15:34:05.383Z,18.67
2022-11-16T15:36:39.201Z,18.77
2022-11-16T15:39:15.002Z,19.20
2022-11-16T15:41:43.240Z,18.07
2022-11-16T15:44:16.798Z,18.93
2022-11-16T15:46:48.178Z,20.00
2022-11-16T15:49:30.661Z,18.63
2022-11-16T15:51:59.731Z,19.43
2022-11-16T15:54:30.664Z,18.20
2022-11-16T15:57:08.013Z,18.60
2022-11-16T15:59:38.068Z,17.60
2022-11-16T16:02:06.052Z,18.47
2022-11-16T16:04:34.092Z,18.33
2022-11-16T16:07:02.043Z,20.27
2022-11-16T16:09:33.460Z,18.60
2022-11-16T16:12:18.195Z,19.73
2022-11-16T16:14:46.943Z,19.83
2022-11-16T16:17:24.332Z,17.37
2022-11-16T16:19:56.514Z,19.07
2022-11-16T16:22:27.318Z,19.97
2022-11-16T16:24:56.729Z,20.53
2022-11-16T16:27:26.076Z,20.03
2022-11-16T16:29:55.311Z,20.90
2022-11-16T16:32:25.833Z,19.47
2022-11-16T16:34:54.079Z,19.37
2022-11-16T16:37:22.333Z,19.83
2022-11-16T16:39:50.128Z,19.93
2022-11-16T16:42:19.244Z,21.00
2022-11-16T16:44:48.538Z,20.37
2022-11-16T16:47:17.224Z,19.27
2022-11-16T16:49:45.283Z,19.80
2022-11-16T16:52:13.815Z,19.43
2022-11-16T16:54:42.041Z,19.93
2022-11-16T16:57:14.118Z,18.77
2022-11-16T16:59:45.130Z,19.50
2022-11-16T17:02:13.623Z,18.63
2022-11-16T17:04:44.116Z,19.10
2022-11-16T17:07:11.907Z,20.13
2022-11-16T17:09:39.744Z,19.47
2022-11-16T17:12:07.596Z,19.83
2022-11-16T17:14:35.320Z,20.23
2022-11-16T17:17:04.386Z,21.10
2022-11-16T17:19:32.172Z,20.10
2022-11-16T17:22:00.003Z,19.70
2022-11-16T17:24:27.722Z,20.37
2022-11-16T17:26:55.442Z,19.77
2022-11-16T17:29:23.172Z,19.60
2022-11-16T17:31:50.844Z,18.93
2022-11-16T17:34:20.014Z,19.03
2022-11-16T17:36:47.772Z,19.80
2022-11-16T17:39:15.923Z,18.37
2022-11-16T17:41:43.659Z,18.23
2022-11-16T17:44:11.423Z,17.50
2022-11-16T17:46:39.158Z,17.57
2022-11-16T17:49:06.995Z,17.77
2022-11-16T17:51:36.013Z,17.73
2022-11-16T17:54:03.703Z,17.73
2022-11-16T17:56:31.584Z,17.07
2022-11-16T17:58:59.598Z,17.67
2022-11-16T18:01:28.089Z,17.10
2022-11-16T18:03:55.966Z,18.07
2022-11-16T18:06:25.192Z,18.50
2022-11-16T18:08:54.949Z,16.90
2022-11-16T18:11:25.006Z,16.13
2022-11-16T18:13:54.395Z,16.03
2022-11-16T18:16:23.880Z,16.53
2022-11-16T18:18:57.323Z,16.20
2022-11-16T18:21:25.596Z,15.80
2022-11-16T18:23:55.226Z,16.10
2022-11-16T18:26:24.674Z,16.60
2022-11-16T18:28:53.543Z,16.73
2022-11-16T18:31:22.932Z,15.43
2022-11-16T18:33:51.042Z,15.30
2022-11-16T18:36:20.295Z,15.80
2022-11-16T18:38:48.580Z,15.30
2022-11-16T18:41:20.713Z,15.23
2022-11-16T18:43:52.981Z,14.77
2022-11-16T18:46:22.161Z,14.97
2022-11-16T18:48:49.953Z,14.97
2022-11-16T18:51:18.946Z,15.77
2022-11-16T18:53:47.234Z,15.33
2022-11-16T18:56:15.078Z,15.00
2022-11-16T18:58:52.984Z,16.23
2022-11-16T19:01:22.506Z,16.30
2022-11-16T19:03:50.736Z,16.00
2022-11-16T19:06:18.610Z,15.67
2022-11-16T19:08:53.682Z,15.43
2022-11-16T19:11:24.599Z,14.00
2022-11-16T19:13:56.201Z,14.20
2022-11-16T19:16:25.446Z,13.47
2022-11-16T19:18:53.746Z,14.03
2022-11-16T19:21:22.777Z,13.47
2022-11-16T19:23:52.222Z,14.17
2022-11-16T19:26:21.277Z,13.53
2022-11-16T19:28:50.228Z,13.80
2022-11-16T19:31:21.664Z,13.13
2022-11-16T19:33:49.589Z,13.10
2022-11-16T19:36:19.208Z,12.47
2022-11-16T19:38:48.477Z,12.97
2022-11-16T19:41:17.895Z,13.60
2022-11-16T19:43:45.891Z,13.13
2022-11-16T19:46:16.508Z,13.43
2022-11-16T19:48:46.995Z,12.87
2022-11-16T19:51:17.156Z,11.33
2022-11-16T19:53:45.382Z,12.20
2022-11-16T19:56:14.997Z,13.27
2022-11-16T19:58:43.379Z,12.63
2022-11-16T20:01:12.605Z,13.23
2022-11-16T20:03:41.879Z,13.33
2022-11-16T20:06:13.229Z,13.17
2022-11-16T20:08:42.527Z,12.97
2022-11-16T20:11:14.568Z,12.67
2022-11-16T20:13:43.010Z,13.40
2022-11-16T20:16:12.766Z,12.83
2022-11-16T20:18:41.644Z,12.80
2022-11-16T20:21:13.339Z,12.33
2022-11-16T20:23:41.006Z,12.43
2022-11-16T20:26:10.632Z,12.47
2022-11-16T20:28:39.437Z,12.00
2022-11-16T20:31:09.818Z,12.03
2022-11-16T20:33:37.915Z,12.63
2022-11-16T20:36:08.342Z,12.30
2022-11-16T20:38:38.436Z,12.73
2022-11-16T20:41:11.242Z,11.97
2022-11-16T20:43:40.216Z,12.57
2022-11-16T20:46:08.273Z,11.67
2022-11-16T20:48:36.392Z,13.00
2022-11-16T20:51:04.329Z,12.50
2022-11-16T20:53:32.647Z,12.50
2022-11-16T20:56:02.982Z,12.77
2022-11-16T20:58:31.189Z,13.47
2022-11-16T21:01:01.509Z,13.10
2022-11-16T21:03:29.367Z,12.80
2022-11-16T21:05:57.126Z,12.03
2022-11-16T21:08:25.733Z,12.57
2022-11-16T21:10:53.878Z,12.27
2022-11-16T21:13:40.885Z,12.13
2022-11-16T21:16:11.478Z,12.07
2022-11-16T21:18:40.138Z,12.97
2022-11-16T21:21:09.184Z,12.33
2022-11-16T21:23:38.996Z,12.67
2022-11-16T21:26:09.341Z,12.13
2022-11-16T21:28:39.208Z,12.00
2022-11-16T21:31:09.176Z,13.00
2022-11-16T21:33:37.423Z,12.23
2022-11-16T21:36:06.298Z,11.13
2022-11-16T21:38:34.624Z,10.97
2022-11-16T21:41:04.293Z,12.30
2022-11-16T21:43:33.802Z,12.13
2022-11-16T21:46:05.285Z,11.30
2022-11-16T21:48:34.167Z,10.43
2022-11-16T21:51:02.816Z,9.93
2022-11-16T21:53:30.573Z,9.03
2022-11-16T21:55:58.631Z,9.17
2022-11-16T21:58:27.108Z,9.33
2022-11-16T22:00:56.280Z,9.97
2022-11-16T22:03:26.580Z,9.63
2022-11-16T22:06:12.080Z,9.97
2022-11-16T22:08:40.392Z,9.60
2022-11-16T22:11:08.552Z,9.40
2022-11-16T22:13:36.539Z,9.27
2022-11-16T22:16:08.537Z,9.27
2022-11-16T22:18:38.454Z,8.90
2022-11-16T22:21:07.233Z,8.97
2022-11-16T22:23:36.162Z,8.60
2022-11-16T22:26:06.499Z,8.47
2022-11-16T22:28:35.315Z,8.80
2022-11-16T22:31:03.813Z,9.37
2022-11-16T22:33:32.138Z,10.07
2022-11-16T22:36:01.343Z,8.87
2022-11-16T22:38:29.135Z,9.03
2022-11-16T22:40:57.766Z,9.67
2022-11-16T22:43:26.969Z,9.83
2022-11-16T22:45:58.097Z,9.60
2022-11-16T22:48:30.179Z,9.37
2022-11-16T22:51:05.178Z,11.10
2022-11-16T22:53:33.147Z,10.47
2022-11-16T22:56:06.205Z,11.20
2022-11-16T22:58:33.913Z,11.17
2022-11-16T23:01:01.607Z,12.47
2022-11-16T23:03:29.576Z,11.73
2022-11-16T23:05:57.333Z,13.80
2022-11-16T23:08:26.379Z,12.07
2022-11-16T23:11:19.489Z,12.23
2022-11-16T23:14:04.957Z,11.67
2022-11-16T23:16:32.983Z,11.53
2022-11-16T23:19:01.145Z,11.70
2022-11-16T23:21:46.597Z,11.17
2022-11-16T23:24:33.815Z,10.80
2022-11-16T23:27:20.777Z,11.50
2022-11-16T23:29:48.698Z,10.83
2022-11-16T23:32:16.470Z,11.17
2022-11-16T23:34:44.306Z,10.70
2022-11-16T23:37:12.019Z,10.50
2022-11-16T23:39:41.035Z,10.40
2022-11-16T23:42:27.035Z,10.07
2022-11-16T23:44:54.709Z,10.47
2022-11-16T23:47:22.591Z,10.47
2022-11-16T23:49:50.494Z,9.63
2022-11-16T23:52:19.214Z,10.03
2022-11-16T23:54:48.220Z,10.50
2022-11-16T23:57:15.873Z,10.60
2022-11-16T23:59:43.565Z,10.27
